FJI401 NTAA-PHKO
Flight info
| Callsign | FJI401 |
|---|---|
| Flight time | N/A |
| Altitude | 34000 |
| Route | IKELO4W IKELO DCT TIAMA B595 TARPP/N0451F360 B595 KOA |
| Aircraft | B738/M-SDE2E3FGHIRWXY/LB1 |
Departure
| Time | N/A |
|---|---|
| Airport | Fa'a'ā International Airport (NTAA) |
Arrival
| Time | 2026-04-25 10:07 |
|---|---|
| Airport | Ellison Onizuka Kona International Airport at Keāhole (PHKO) |
| Time | Latitude | Longitude | Altitude | Speed | Heading |
|---|---|---|---|---|---|
| 2026-04-25 07:42 | 3.21127 | -152.95113 | 33973 ft | 445 kts | 346° |
| 2026-04-25 07:43 | 3.27272 | -152.96210 | 34203 ft | 450 kts | 346° |
| 2026-04-25 07:43 | 3.30349 | -152.96758 | 34458 ft | 448 kts | 346° |
| 2026-04-25 07:43 | 3.33414 | -152.97303 | 34751 ft | 446 kts | 346° |
| 2026-04-25 07:44 | 3.36461 | -152.97845 | 34998 ft | 444 kts | 346° |
| 2026-04-25 07:44 | 3.39506 | -152.98387 | 35195 ft | 444 kts | 346° |
| 2026-04-25 07:44 | 3.42545 | -152.98930 | 35366 ft | 445 kts | 346° |
| 2026-04-25 07:44 | 3.45500 | -152.99457 | 35530 ft | 445 kts | 346° |
| 2026-04-25 07:45 | 3.48545 | -153.00001 | 35757 ft | 444 kts | 346° |
| 2026-04-25 07:45 | 3.51583 | -153.00542 | 35985 ft | 443 kts | 346° |
| 2026-04-25 07:45 | 3.54615 | -153.01083 | 36162 ft | 443 kts | 346° |
| 2026-04-25 07:45 | 3.57654 | -153.01626 | 36309 ft | 444 kts | 346° |
| 2026-04-25 07:46 | 3.60692 | -153.02168 | 36486 ft | 443 kts | 346° |
| 2026-04-25 07:46 | 3.63729 | -153.02710 | 36693 ft | 442 kts | 346° |
| 2026-04-25 07:46 | 3.66752 | -153.03249 | 36894 ft | 441 kts | 346° |
| 2026-04-25 07:46 | 3.69785 | -153.03791 | 36896 ft | 444 kts | 346° |
| 2026-04-25 07:47 | 3.75871 | -153.04878 | 36902 ft | 444 kts | 346° |
| 2026-04-25 07:47 | 3.81928 | -153.05958 | 36905 ft | 441 kts | 346° |
| 2026-04-25 07:48 | 3.87917 | -153.07027 | 36905 ft | 439 kts | 346° |
| 2026-04-25 07:48 | 3.93924 | -153.08100 | 36909 ft | 437 kts | 346° |
| 2026-04-25 07:49 | 3.99910 | -153.09169 | 36911 ft | 437 kts | 346° |
| 2026-04-25 07:49 | 4.05896 | -153.10239 | 36915 ft | 437 kts | 346° |
| 2026-04-25 07:50 | 4.11889 | -153.11310 | 36916 ft | 438 kts | 345° |
| 2026-04-25 07:50 | 4.17896 | -153.12384 | 36913 ft | 439 kts | 345° |
| 2026-04-25 07:51 | 4.23926 | -153.13461 | 36914 ft | 441 kts | 345° |
| 2026-04-25 07:51 | 4.29933 | -153.14535 | 36913 ft | 442 kts | 345° |
| 2026-04-25 07:52 | 4.35999 | -153.15619 | 36915 ft | 443 kts | 345° |
| 2026-04-25 07:52 | 4.42078 | -153.16706 | 36914 ft | 444 kts | 345° |
| 2026-04-25 07:53 | 4.48170 | -153.17796 | 36910 ft | 445 kts | 345° |
| 2026-04-25 07:53 | 4.54275 | -153.18890 | 36915 ft | 445 kts | 345° |
| 2026-04-25 07:54 | 4.60379 | -153.19984 | 36908 ft | 446 kts | 345° |
| 2026-04-25 07:54 | 4.66485 | -153.21078 | 36911 ft | 446 kts | 345° |
| 2026-04-25 07:55 | 4.72590 | -153.22173 | 36912 ft | 445 kts | 345° |
| 2026-04-25 07:55 | 4.78688 | -153.23266 | 36923 ft | 444 kts | 345° |
| 2026-04-25 07:56 | 4.84771 | -153.24357 | 36908 ft | 444 kts | 345° |
| 2026-04-25 07:56 | 4.90842 | -153.25446 | 36911 ft | 442 kts | 345° |
| 2026-04-25 07:57 | 4.96855 | -153.26525 | 36909 ft | 441 kts | 345° |
| 2026-04-25 07:57 | 5.02890 | -153.27607 | 36908 ft | 440 kts | 345° |
| 2026-04-25 07:58 | 5.08914 | -153.28689 | 36911 ft | 439 kts | 345° |
| 2026-04-25 07:58 | 5.14922 | -153.29767 | 36918 ft | 438 kts | 344° |
| 2026-04-25 07:59 | 5.20920 | -153.30844 | 36910 ft | 437 kts | 344° |
| 2026-04-25 07:59 | 5.26911 | -153.31920 | 36912 ft | 436 kts | 344° |
| 2026-04-25 08:00 | 5.32885 | -153.32993 | 36914 ft | 436 kts | 344° |
| 2026-04-25 08:00 | 5.38851 | -153.34065 | 36914 ft | 435 kts | 344° |
| 2026-04-25 08:01 | 5.44814 | -153.35137 | 36920 ft | 435 kts | 343° |
| 2026-04-25 08:01 | 5.50772 | -153.36208 | 36913 ft | 435 kts | 343° |
| 2026-04-25 08:02 | 5.56738 | -153.37281 | 36912 ft | 435 kts | 343° |
| 2026-04-25 08:02 | 5.62692 | -153.38351 | 36912 ft | 435 kts | 343° |
| 2026-04-25 08:03 | 5.68647 | -153.39422 | 36912 ft | 435 kts | 343° |
| 2026-04-25 08:03 | 5.74605 | -153.40494 | 36912 ft | 435 kts | 343° |
| 2026-04-25 08:04 | 5.80562 | -153.41566 | 36925 ft | 435 kts | 343° |
| 2026-04-25 08:04 | 5.86525 | -153.42639 | 36911 ft | 435 kts | 343° |
| 2026-04-25 08:05 | 5.92444 | -153.43704 | 36910 ft | 435 kts | 343° |
| 2026-04-25 08:05 | 5.98406 | -153.44777 | 36911 ft | 435 kts | 343° |
| 2026-04-25 08:06 | 6.04356 | -153.45849 | 36915 ft | 435 kts | 343° |
| 2026-04-25 08:06 | 6.10309 | -153.46921 | 36914 ft | 434 kts | 343° |
| 2026-04-25 08:07 | 6.16268 | -153.47994 | 36926 ft | 434 kts | 343° |
| 2026-04-25 08:07 | 6.22216 | -153.49066 | 36915 ft | 434 kts | 343° |
| 2026-04-25 08:08 | 6.28144 | -153.50135 | 36913 ft | 433 kts | 343° |
| 2026-04-25 08:08 | 6.34072 | -153.51203 | 36914 ft | 432 kts | 343° |
| 2026-04-25 08:09 | 6.39993 | -153.52271 | 36917 ft | 432 kts | 343° |
| 2026-04-25 08:09 | 6.45862 | -153.53329 | 36918 ft | 431 kts | 343° |
| 2026-04-25 08:10 | 6.51760 | -153.54394 | 36925 ft | 431 kts | 343° |
| 2026-04-25 08:10 | 6.57663 | -153.55459 | 36915 ft | 430 kts | 343° |
| 2026-04-25 08:11 | 6.63551 | -153.56521 | 36913 ft | 430 kts | 343° |
| 2026-04-25 08:11 | 6.69436 | -153.57584 | 36914 ft | 429 kts | 343° |
| 2026-04-25 08:12 | 6.75317 | -153.58646 | 36916 ft | 429 kts | 343° |
| 2026-04-25 08:12 | 6.81184 | -153.59706 | 36919 ft | 429 kts | 343° |
| 2026-04-25 08:13 | 6.87065 | -153.60769 | 36923 ft | 429 kts | 343° |
| 2026-04-25 08:14 | 6.94882 | -153.62182 | 36915 ft | 429 kts | 343° |
| 2026-04-25 08:14 | 7.00763 | -153.63245 | 36913 ft | 429 kts | 343° |
| 2026-04-25 08:15 | 7.07593 | -153.64480 | 36915 ft | 429 kts | 343° |
| 2026-04-25 08:15 | 7.12521 | -153.65371 | 36915 ft | 429 kts | 343° |
| 2026-04-25 08:16 | 7.18405 | -153.66436 | 36928 ft | 429 kts | 343° |
| 2026-04-25 08:16 | 7.24283 | -153.67499 | 36928 ft | 429 kts | 343° |
| 2026-04-25 08:17 | 7.30131 | -153.68558 | 36916 ft | 430 kts | 343° |
| 2026-04-25 08:17 | 7.36023 | -153.69625 | 36927 ft | 430 kts | 343° |
| 2026-04-25 08:18 | 7.41916 | -153.70692 | 36921 ft | 430 kts | 343° |
| 2026-04-25 08:18 | 7.47810 | -153.71760 | 36920 ft | 430 kts | 343° |
| 2026-04-25 08:19 | 7.53701 | -153.72828 | 36920 ft | 430 kts | 343° |
| 2026-04-25 08:19 | 7.59596 | -153.73896 | 36935 ft | 430 kts | 343° |
| 2026-04-25 08:20 | 7.65492 | -153.74965 | 36921 ft | 430 kts | 343° |
| 2026-04-25 08:20 | 7.71387 | -153.76034 | 36921 ft | 430 kts | 343° |
| 2026-04-25 08:21 | 7.77281 | -153.77103 | 36918 ft | 430 kts | 343° |
| 2026-04-25 08:21 | 7.83174 | -153.78173 | 36922 ft | 430 kts | 343° |
| 2026-04-25 08:22 | 7.89033 | -153.79236 | 36922 ft | 430 kts | 343° |
| 2026-04-25 08:22 | 7.94925 | -153.80306 | 36922 ft | 430 kts | 343° |
| 2026-04-25 08:23 | 8.00826 | -153.81378 | 36922 ft | 430 kts | 343° |
| 2026-04-25 08:23 | 8.06718 | -153.82448 | 36922 ft | 430 kts | 343° |
| 2026-04-25 08:24 | 8.12621 | -153.83521 | 36931 ft | 430 kts | 343° |
| 2026-04-25 08:24 | 8.18511 | -153.84592 | 36947 ft | 430 kts | 343° |
| 2026-04-25 08:25 | 8.24406 | -153.85664 | 36925 ft | 430 kts | 343° |
| 2026-04-25 08:25 | 8.30302 | -153.86736 | 36926 ft | 430 kts | 343° |
| 2026-04-25 08:26 | 8.36194 | -153.87808 | 36926 ft | 430 kts | 343° |
| 2026-04-25 08:26 | 8.42050 | -153.88874 | 36926 ft | 430 kts | 343° |
| 2026-04-25 08:27 | 8.47943 | -153.89947 | 36926 ft | 430 kts | 343° |
| 2026-04-25 08:27 | 8.53840 | -153.91021 | 36937 ft | 430 kts | 343° |
| 2026-04-25 08:28 | 8.59740 | -153.92096 | 36927 ft | 430 kts | 343° |
| 2026-04-25 08:28 | 8.65640 | -153.93171 | 36925 ft | 430 kts | 343° |
| 2026-04-25 08:29 | 8.71535 | -153.94245 | 36924 ft | 430 kts | 343° |
| 2026-04-25 08:29 | 8.77429 | -153.95320 | 36930 ft | 430 kts | 343° |
| 2026-04-25 08:30 | 8.78809 | -153.95572 | 36931 ft | 430 kts | 343° |
| 2026-04-25 08:30 | 8.84698 | -153.96646 | 36932 ft | 430 kts | 343° |
| 2026-04-25 08:31 | 8.90588 | -153.97721 | 36938 ft | 430 kts | 343° |
| 2026-04-25 08:31 | 8.96486 | -153.98798 | 36932 ft | 431 kts | 344° |
| 2026-04-25 08:32 | 9.02385 | -153.99875 | 36931 ft | 431 kts | 343° |
| 2026-04-25 08:32 | 9.08288 | -154.00953 | 36932 ft | 431 kts | 343° |
| 2026-04-25 08:33 | 9.14187 | -154.02031 | 36934 ft | 431 kts | 343° |
| 2026-04-25 08:33 | 9.20098 | -154.03112 | 36945 ft | 431 kts | 344° |
| 2026-04-25 08:34 | 9.25972 | -154.04186 | 36933 ft | 431 kts | 344° |
| 2026-04-25 08:34 | 9.31876 | -154.05265 | 36945 ft | 431 kts | 344° |
| 2026-04-25 08:35 | 9.37785 | -154.06347 | 36935 ft | 431 kts | 344° |
| 2026-04-25 08:35 | 9.43691 | -154.07427 | 36940 ft | 431 kts | 344° |
| 2026-04-25 08:36 | 9.49598 | -154.08509 | 36940 ft | 431 kts | 344° |
| 2026-04-25 08:36 | 9.55499 | -154.09590 | 36946 ft | 431 kts | 344° |
| 2026-04-25 08:37 | 9.61371 | -154.10666 | 36941 ft | 431 kts | 344° |
| 2026-04-25 08:37 | 9.67269 | -154.11747 | 36940 ft | 431 kts | 344° |
| 2026-04-25 08:38 | 9.73169 | -154.12829 | 36940 ft | 431 kts | 344° |
| 2026-04-25 08:38 | 9.79072 | -154.13912 | 36940 ft | 431 kts | 344° |
| 2026-04-25 08:39 | 9.84980 | -154.14996 | 36941 ft | 431 kts | 344° |
| 2026-04-25 08:39 | 9.90881 | -154.16079 | 36943 ft | 431 kts | 344° |
| 2026-04-25 08:40 | 9.96797 | -154.17166 | 36949 ft | 432 kts | 344° |
| 2026-04-25 08:40 | 10.02718 | -154.18253 | 36949 ft | 432 kts | 344° |
| 2026-04-25 08:41 | 10.08642 | -154.19342 | 36950 ft | 433 kts | 344° |
| 2026-04-25 08:41 | 10.14534 | -154.20425 | 36948 ft | 433 kts | 344° |
| 2026-04-25 08:42 | 10.20477 | -154.21518 | 36948 ft | 434 kts | 344° |
| 2026-04-25 08:42 | 10.26427 | -154.22613 | 36948 ft | 434 kts | 345° |
| 2026-04-25 08:43 | 10.32382 | -154.23709 | 36947 ft | 435 kts | 345° |
| 2026-04-25 08:43 | 10.38334 | -154.24804 | 36949 ft | 435 kts | 345° |
| 2026-04-25 08:44 | 10.44304 | -154.25904 | 36949 ft | 436 kts | 345° |
| 2026-04-25 08:44 | 10.50231 | -154.26996 | 36951 ft | 436 kts | 345° |
| 2026-04-25 08:45 | 10.56197 | -154.28095 | 36951 ft | 436 kts | 345° |
| 2026-04-25 08:45 | 10.62169 | -154.29197 | 36955 ft | 436 kts | 345° |
| 2026-04-25 08:46 | 10.68128 | -154.30296 | 36952 ft | 435 kts | 345° |
| 2026-04-25 08:46 | 10.74095 | -154.31397 | 36952 ft | 435 kts | 345° |
| 2026-04-25 08:47 | 10.80052 | -154.32497 | 36961 ft | 435 kts | 345° |
| 2026-04-25 08:47 | 10.86007 | -154.33597 | 36959 ft | 435 kts | 345° |
| 2026-04-25 08:48 | 10.91924 | -154.34690 | 36962 ft | 435 kts | 345° |
| 2026-04-25 08:48 | 10.97877 | -154.35791 | 36966 ft | 435 kts | 345° |
| 2026-04-25 08:49 | 11.03827 | -154.36891 | 36967 ft | 435 kts | 345° |
| 2026-04-25 08:49 | 11.09783 | -154.37993 | 36968 ft | 435 kts | 345° |
| 2026-04-25 08:50 | 11.15735 | -154.39095 | 36969 ft | 435 kts | 345° |
| 2026-04-25 08:50 | 11.21652 | -154.40190 | 36970 ft | 435 kts | 345° |
| 2026-04-25 08:51 | 11.27607 | -154.41293 | 36971 ft | 435 kts | 345° |
| 2026-04-25 08:51 | 11.33571 | -154.42395 | 36973 ft | 436 kts | 345° |
| 2026-04-25 08:52 | 11.39539 | -154.43497 | 36975 ft | 436 kts | 345° |
| 2026-04-25 08:52 | 11.45515 | -154.44600 | 36979 ft | 436 kts | 345° |
| 2026-04-25 08:53 | 11.51492 | -154.45705 | 36969 ft | 437 kts | 345° |
| 2026-04-25 08:53 | 11.57476 | -154.46812 | 36981 ft | 437 kts | 345° |
| 2026-04-25 08:54 | 11.63469 | -154.47921 | 36982 ft | 438 kts | 345° |
| 2026-04-25 08:54 | 11.69464 | -154.49031 | 36983 ft | 438 kts | 345° |
| 2026-04-25 08:55 | 11.75443 | -154.50138 | 36984 ft | 439 kts | 345° |
| 2026-04-25 08:55 | 11.81493 | -154.51259 | 36980 ft | 439 kts | 345° |
| 2026-04-25 08:56 | 11.87488 | -154.52370 | 36981 ft | 440 kts | 345° |
| 2026-04-25 08:56 | 11.93516 | -154.53488 | 36982 ft | 441 kts | 345° |
| 2026-04-25 08:57 | 11.99194 | -154.54542 | 36979 ft | 441 kts | 345° |
| 2026-04-25 08:57 | 12.05236 | -154.55663 | 36985 ft | 441 kts | 345° |
| 2026-04-25 08:58 | 12.11288 | -154.56787 | 36988 ft | 442 kts | 345° |
| 2026-04-25 08:58 | 12.17342 | -154.57912 | 36989 ft | 442 kts | 345° |
| 2026-04-25 08:59 | 12.23390 | -154.59036 | 36999 ft | 442 kts | 345° |
| 2026-04-25 08:59 | 12.29452 | -154.60163 | 36986 ft | 443 kts | 345° |
| 2026-04-25 09:00 | 12.35514 | -154.61291 | 36988 ft | 443 kts | 345° |
| 2026-04-25 09:00 | 12.41538 | -154.62412 | 36988 ft | 443 kts | 345° |
| 2026-04-25 09:01 | 12.47606 | -154.63542 | 36990 ft | 443 kts | 345° |
| 2026-04-25 09:01 | 12.53671 | -154.64672 | 36989 ft | 443 kts | 345° |
| 2026-04-25 09:02 | 12.59743 | -154.65804 | 36992 ft | 443 kts | 345° |
| 2026-04-25 09:02 | 12.65806 | -154.66934 | 36990 ft | 443 kts | 345° |
| 2026-04-25 09:03 | 12.70863 | -154.67878 | 36991 ft | 443 kts | 345° |
| 2026-04-25 09:03 | 12.77932 | -154.69197 | 36991 ft | 443 kts | 345° |
| 2026-04-25 09:04 | 12.82986 | -154.70141 | 36993 ft | 443 kts | 345° |
| 2026-04-25 09:04 | 12.89061 | -154.71276 | 36991 ft | 443 kts | 345° |
| 2026-04-25 09:05 | 12.95140 | -154.72413 | 36991 ft | 443 kts | 345° |
| 2026-04-25 09:05 | 13.01212 | -154.73548 | 36993 ft | 443 kts | 345° |
| 2026-04-25 09:06 | 13.07284 | -154.74684 | 36989 ft | 444 kts | 345° |
| 2026-04-25 09:06 | 13.13362 | -154.75822 | 36993 ft | 443 kts | 345° |
| 2026-04-25 09:07 | 13.19408 | -154.76955 | 37009 ft | 447 kts | 345° |
| 2026-04-25 09:07 | 13.25580 | -154.78115 | 37014 ft | 454 kts | 345° |
| 2026-04-25 09:08 | 13.31843 | -154.79290 | 37008 ft | 461 kts | 345° |
| 2026-04-25 09:08 | 13.38184 | -154.80479 | 37009 ft | 466 kts | 345° |
| 2026-04-25 09:09 | 13.44587 | -154.81680 | 37002 ft | 469 kts | 345° |
| 2026-04-25 09:09 | 13.51021 | -154.82887 | 36998 ft | 470 kts | 345° |
| 2026-04-25 09:10 | 13.57465 | -154.84097 | 37012 ft | 471 kts | 346° |
| 2026-04-25 09:10 | 13.63872 | -154.85301 | 37002 ft | 471 kts | 345° |
| 2026-04-25 09:11 | 13.73556 | -154.87122 | 37009 ft | 470 kts | 345° |
| 2026-04-25 09:11 | 13.80000 | -154.88335 | 37007 ft | 470 kts | 345° |
| 2026-04-25 09:12 | 13.86381 | -154.89537 | 37000 ft | 469 kts | 345° |
| 2026-04-25 09:12 | 13.92806 | -154.90748 | 37000 ft | 468 kts | 345° |
| 2026-04-25 09:13 | 13.99214 | -154.91957 | 37007 ft | 468 kts | 345° |
| 2026-04-25 09:13 | 14.05612 | -154.93164 | 37012 ft | 467 kts | 345° |
| 2026-04-25 09:14 | 14.12012 | -154.94372 | 37014 ft | 467 kts | 345° |
| 2026-04-25 09:14 | 14.18405 | -154.95580 | 37010 ft | 467 kts | 345° |
| 2026-04-25 09:15 | 14.24755 | -154.96780 | 37025 ft | 467 kts | 345° |
| 2026-04-25 09:15 | 14.31157 | -154.97991 | 37012 ft | 467 kts | 345° |
| 2026-04-25 09:16 | 14.37549 | -154.99201 | 37010 ft | 467 kts | 345° |
| 2026-04-25 09:16 | 14.43953 | -155.00413 | 37017 ft | 467 kts | 345° |
| 2026-04-25 09:17 | 14.53519 | -155.02226 | 37014 ft | 467 kts | 345° |
| 2026-04-25 09:18 | 14.59917 | -155.03439 | 37028 ft | 467 kts | 345° |
| 2026-04-25 09:18 | 14.66319 | -155.04654 | 37018 ft | 468 kts | 345° |
| 2026-04-25 09:19 | 14.72721 | -155.05869 | 37013 ft | 468 kts | 345° |
| 2026-04-25 09:19 | 14.79125 | -155.07086 | 37017 ft | 468 kts | 345° |
| 2026-04-25 09:20 | 14.85531 | -155.08303 | 37019 ft | 468 kts | 345° |
| 2026-04-25 09:20 | 14.91940 | -155.09522 | 37028 ft | 468 kts | 345° |
| 2026-04-25 09:21 | 14.98352 | -155.10743 | 37020 ft | 468 kts | 345° |
| 2026-04-25 09:21 | 15.04764 | -155.11964 | 37023 ft | 468 kts | 345° |
| 2026-04-25 09:22 | 15.11176 | -155.13185 | 37023 ft | 469 kts | 345° |
| 2026-04-25 09:22 | 15.17554 | -155.14401 | 37024 ft | 469 kts | 345° |
| 2026-04-25 09:23 | 15.23979 | -155.15627 | 37034 ft | 469 kts | 345° |
| 2026-04-25 09:23 | 15.30397 | -155.16852 | 37024 ft | 469 kts | 345° |
| 2026-04-25 09:24 | 15.36829 | -155.18081 | 37027 ft | 469 kts | 345° |
| 2026-04-25 09:24 | 15.43208 | -155.19300 | 37027 ft | 469 kts | 345° |
| 2026-04-25 09:25 | 15.49627 | -155.20527 | 37024 ft | 469 kts | 345° |
| 2026-04-25 09:25 | 15.56046 | -155.21756 | 37043 ft | 469 kts | 345° |
| 2026-04-25 09:26 | 15.62464 | -155.22985 | 37034 ft | 469 kts | 345° |
| 2026-04-25 09:26 | 15.68883 | -155.24215 | 37027 ft | 469 kts | 345° |
| 2026-04-25 09:27 | 15.75306 | -155.25446 | 37029 ft | 469 kts | 345° |
| 2026-04-25 09:27 | 15.81725 | -155.26678 | 37029 ft | 469 kts | 345° |
| 2026-04-25 09:28 | 15.88139 | -155.27909 | 37034 ft | 469 kts | 345° |
| 2026-04-25 09:28 | 15.94560 | -155.29142 | 37031 ft | 469 kts | 345° |
| 2026-04-25 09:29 | 16.00975 | -155.30376 | 37041 ft | 469 kts | 345° |
| 2026-04-25 09:29 | 16.07395 | -155.31611 | 37033 ft | 469 kts | 345° |
| 2026-04-25 09:30 | 16.13808 | -155.32845 | 37040 ft | 468 kts | 345° |
| 2026-04-25 09:30 | 16.20217 | -155.34079 | 37039 ft | 468 kts | 345° |
| 2026-04-25 09:31 | 16.26484 | -155.35283 | 37021 ft | 450 kts | 345° |
| 2026-04-25 09:31 | 16.32573 | -155.36453 | 37045 ft | 442 kts | 345° |
| 2026-04-25 09:32 | 16.38620 | -155.37624 | 37052 ft | 442 kts | 345° |
| 2026-04-25 09:32 | 16.44665 | -155.38795 | 37040 ft | 441 kts | 345° |
| 2026-04-25 09:33 | 16.50706 | -155.39963 | 37043 ft | 441 kts | 345° |
| 2026-04-25 09:33 | 16.56744 | -155.41131 | 37044 ft | 442 kts | 345° |
| 2026-04-25 09:34 | 16.62803 | -155.42303 | 37042 ft | 443 kts | 345° |
| 2026-04-25 09:34 | 16.68866 | -155.43477 | 37042 ft | 443 kts | 345° |
| 2026-04-25 09:35 | 16.74945 | -155.44655 | 37047 ft | 444 kts | 345° |
| 2026-04-25 09:35 | 16.81039 | -155.45836 | 37044 ft | 445 kts | 345° |
| 2026-04-25 09:36 | 16.87135 | -155.47019 | 37051 ft | 446 kts | 345° |
| 2026-04-25 09:36 | 16.93237 | -155.48203 | 37054 ft | 446 kts | 345° |
| 2026-04-25 09:37 | 16.99311 | -155.49383 | 37044 ft | 447 kts | 345° |
| 2026-04-25 09:37 | 17.05421 | -155.50570 | 37047 ft | 447 kts | 345° |
| 2026-04-25 09:38 | 17.11533 | -155.51758 | 37047 ft | 446 kts | 345° |
| 2026-04-25 09:38 | 17.17639 | -155.52947 | 37051 ft | 446 kts | 345° |
| 2026-04-25 09:38 | 17.20679 | -155.53538 | 36852 ft | 443 kts | 345° |
| 2026-04-25 09:39 | 17.23687 | -155.54122 | 36573 ft | 435 kts | 345° |
| 2026-04-25 09:39 | 17.26649 | -155.54697 | 36180 ft | 431 kts | 345° |
| 2026-04-25 09:39 | 17.29584 | -155.55268 | 35819 ft | 427 kts | 344° |
| 2026-04-25 09:40 | 17.35375 | -155.56398 | 35056 ft | 420 kts | 344° |
| 2026-04-25 09:40 | 17.38244 | -155.56958 | 34677 ft | 418 kts | 344° |
| 2026-04-25 09:40 | 17.41090 | -155.57514 | 34274 ft | 416 kts | 344° |
| 2026-04-25 09:40 | 17.43926 | -155.58068 | 33872 ft | 413 kts | 344° |
| 2026-04-25 09:41 | 17.46743 | -155.58619 | 33446 ft | 410 kts | 344° |
| 2026-04-25 09:41 | 17.49539 | -155.59165 | 33052 ft | 407 kts | 344° |
| 2026-04-25 09:41 | 17.52313 | -155.59707 | 32683 ft | 404 kts | 344° |
| 2026-04-25 09:41 | 17.55067 | -155.60246 | 32303 ft | 401 kts | 345° |
| 2026-04-25 09:42 | 17.57805 | -155.60781 | 31928 ft | 399 kts | 345° |
| 2026-04-25 09:42 | 17.60524 | -155.61313 | 31561 ft | 396 kts | 345° |
| 2026-04-25 09:42 | 17.63222 | -155.61838 | 31202 ft | 393 kts | 345° |
| 2026-04-25 09:42 | 17.65904 | -155.62363 | 30832 ft | 391 kts | 345° |
| 2026-04-25 09:43 | 17.68571 | -155.62886 | 30485 ft | 389 kts | 345° |
| 2026-04-25 09:43 | 17.71217 | -155.63406 | 30128 ft | 387 kts | 345° |
| 2026-04-25 09:43 | 17.73824 | -155.63917 | 29707 ft | 384 kts | 345° |
| 2026-04-25 09:43 | 17.76440 | -155.64430 | 29312 ft | 381 kts | 345° |
| 2026-04-25 09:44 | 17.79041 | -155.64940 | 28926 ft | 378 kts | 346° |
| 2026-04-25 09:44 | 17.81621 | -155.65446 | 28550 ft | 375 kts | 346° |
| 2026-04-25 09:44 | 17.84176 | -155.65947 | 28187 ft | 372 kts | 346° |
| 2026-04-25 09:44 | 17.86712 | -155.66445 | 27822 ft | 369 kts | 346° |
| 2026-04-25 09:45 | 17.89224 | -155.66938 | 27462 ft | 366 kts | 346° |
| 2026-04-25 09:45 | 17.91730 | -155.67429 | 27106 ft | 364 kts | 346° |
| 2026-04-25 09:45 | 17.94210 | -155.67916 | 26753 ft | 361 kts | 346° |
| 2026-04-25 09:45 | 17.96674 | -155.68400 | 26399 ft | 359 kts | 347° |
| 2026-04-25 09:46 | 17.99122 | -155.68883 | 26057 ft | 357 kts | 347° |
| 2026-04-25 09:46 | 18.01556 | -155.69362 | 25711 ft | 355 kts | 348° |
| 2026-04-25 09:46 | 18.03981 | -155.69835 | 25373 ft | 353 kts | 347° |
| 2026-04-25 09:46 | 18.06390 | -155.70310 | 25002 ft | 353 kts | 347° |
| 2026-04-25 09:47 | 18.08798 | -155.70786 | 24751 ft | 350 kts | 347° |
| 2026-04-25 09:47 | 18.11210 | -155.71262 | 24541 ft | 361 kts | 348° |
| 2026-04-25 09:47 | 18.13711 | -155.71825 | 24356 ft | 382 kts | 346° |
| 2026-04-25 09:47 | 18.16374 | -155.72485 | 24150 ft | 403 kts | 346° |
| 2026-04-25 09:48 | 18.19166 | -155.73195 | 23942 ft | 422 kts | 346° |
| 2026-04-25 09:48 | 18.22076 | -155.73936 | 23737 ft | 439 kts | 346° |
| 2026-04-25 09:48 | 18.25099 | -155.74700 | 23506 ft | 453 kts | 346° |
| 2026-04-25 09:48 | 18.28185 | -155.75474 | 23238 ft | 456 kts | 346° |
| 2026-04-25 09:49 | 18.31272 | -155.76244 | 22969 ft | 456 kts | 346° |
| 2026-04-25 09:49 | 18.34352 | -155.77009 | 22696 ft | 454 kts | 346° |
| 2026-04-25 09:49 | 18.37420 | -155.77770 | 22047 ft | 449 kts | 346° |
| 2026-04-25 09:49 | 18.40442 | -155.78520 | 21422 ft | 443 kts | 346° |
| 2026-04-25 09:50 | 18.43429 | -155.79261 | 20799 ft | 438 kts | 346° |
| 2026-04-25 09:50 | 18.46379 | -155.79993 | 20181 ft | 433 kts | 346° |
| 2026-04-25 09:50 | 18.49301 | -155.80718 | 19570 ft | 429 kts | 346° |
| 2026-04-25 09:50 | 18.51222 | -155.81196 | 19160 ft | 426 kts | 346° |
| 2026-04-25 09:51 | 18.55066 | -155.82151 | 18322 ft | 422 kts | 346° |
| 2026-04-25 09:51 | 18.56954 | -155.82621 | 17865 ft | 420 kts | 346° |
| 2026-04-25 09:51 | 18.59781 | -155.83324 | 17226 ft | 415 kts | 346° |
| 2026-04-25 09:51 | 18.63482 | -155.84244 | 16405 ft | 409 kts | 346° |
| 2026-04-25 09:52 | 18.65345 | -155.84707 | 15999 ft | 406 kts | 346° |
| 2026-04-25 09:52 | 18.68076 | -155.85388 | 15412 ft | 401 kts | 346° |
| 2026-04-25 09:52 | 18.70775 | -155.86060 | 14835 ft | 396 kts | 345° |
| 2026-04-25 09:52 | 18.73445 | -155.86726 | 14262 ft | 392 kts | 346° |
| 2026-04-25 09:53 | 18.76088 | -155.87385 | 13676 ft | 388 kts | 345° |
| 2026-04-25 09:53 | 18.78705 | -155.88037 | 13045 ft | 384 kts | 346° |
| 2026-04-25 09:53 | 18.81290 | -155.88681 | 12460 ft | 380 kts | 345° |
| 2026-04-25 09:53 | 18.83849 | -155.89321 | 11891 ft | 377 kts | 346° |
| 2026-04-25 09:54 | 18.86395 | -155.89955 | 11313 ft | 374 kts | 346° |
| 2026-04-25 09:54 | 18.88854 | -155.90570 | 11143 ft | 361 kts | 346° |
| 2026-04-25 09:54 | 18.91256 | -155.91169 | 10969 ft | 348 kts | 346° |
| 2026-04-25 09:54 | 18.93580 | -155.91750 | 10816 ft | 337 kts | 346° |
| 2026-04-25 09:55 | 18.95824 | -155.92311 | 10676 ft | 326 kts | 346° |
| 2026-04-25 09:55 | 18.97999 | -155.92855 | 10541 ft | 316 kts | 346° |
| 2026-04-25 09:55 | 19.00103 | -155.93382 | 10412 ft | 306 kts | 346° |
| 2026-04-25 09:55 | 19.02141 | -155.93893 | 10292 ft | 297 kts | 346° |
| 2026-04-25 09:56 | 19.04121 | -155.94388 | 10174 ft | 288 kts | 346° |
| 2026-04-25 09:56 | 19.06045 | -155.94869 | 10037 ft | 280 kts | 346° |
| 2026-04-25 09:56 | 19.07940 | -155.95343 | 9738 ft | 279 kts | 346° |
| 2026-04-25 09:56 | 19.09827 | -155.95815 | 9453 ft | 277 kts | 346° |
| 2026-04-25 09:57 | 19.11674 | -155.96278 | 9177 ft | 276 kts | 347° |
| 2026-04-25 09:57 | 19.13561 | -155.96750 | 8881 ft | 274 kts | 347° |
| 2026-04-25 09:57 | 19.15410 | -155.97213 | 8602 ft | 273 kts | 347° |
| 2026-04-25 09:57 | 19.17254 | -155.97675 | 8322 ft | 271 kts | 347° |
| 2026-04-25 09:58 | 19.19064 | -155.98129 | 8053 ft | 270 kts | 347° |
| 2026-04-25 09:58 | 19.20891 | -155.98587 | 7783 ft | 269 kts | 347° |
| 2026-04-25 09:58 | 19.22710 | -155.99043 | 7502 ft | 268 kts | 347° |
| 2026-04-25 09:58 | 19.24524 | -155.99498 | 7229 ft | 267 kts | 347° |
| 2026-04-25 09:59 | 19.26332 | -155.99952 | 6949 ft | 267 kts | 347° |
| 2026-04-25 09:59 | 19.28134 | -156.00404 | 6666 ft | 266 kts | 347° |
| 2026-04-25 09:59 | 19.29934 | -156.00856 | 6398 ft | 265 kts | 347° |
| 2026-04-25 09:59 | 19.31729 | -156.01306 | 6102 ft | 265 kts | 347° |
| 2026-04-25 10:00 | 19.33522 | -156.01756 | 5820 ft | 264 kts | 347° |
| 2026-04-25 10:00 | 19.35307 | -156.02204 | 5546 ft | 263 kts | 347° |
| 2026-04-25 10:00 | 19.37087 | -156.02652 | 5273 ft | 262 kts | 347° |
| 2026-04-25 10:00 | 19.38855 | -156.03096 | 5009 ft | 261 kts | 347° |
| 2026-04-25 10:01 | 19.40621 | -156.03540 | 4713 ft | 261 kts | 347° |
| 2026-04-25 10:01 | 19.42364 | -156.03978 | 4448 ft | 260 kts | 347° |
| 2026-04-25 10:01 | 19.44119 | -156.04419 | 4181 ft | 258 kts | 347° |
| 2026-04-25 10:01 | 19.45866 | -156.04858 | 3915 ft | 257 kts | 347° |
| 2026-04-25 10:02 | 19.47586 | -156.05292 | 3787 ft | 250 kts | 348° |
| 2026-04-25 10:02 | 19.49256 | -156.05712 | 3666 ft | 244 kts | 347° |
| 2026-04-25 10:02 | 19.50873 | -156.06119 | 3574 ft | 232 kts | 348° |
| 2026-04-25 10:02 | 19.52412 | -156.06437 | 3468 ft | 219 kts | 359° |
| 2026-04-25 10:03 | 19.53857 | -156.06311 | 3412 ft | 203 kts | 6° |
| 2026-04-25 10:03 | 19.55234 | -156.06198 | 3241 ft | 193 kts | 5° |
| 2026-04-25 10:03 | 19.56553 | -156.06096 | 3040 ft | 187 kts | 5° |
| 2026-04-25 10:03 | 19.57825 | -156.05988 | 2845 ft | 182 kts | 6° |
| 2026-04-25 10:04 | 19.59087 | -156.05878 | 2653 ft | 180 kts | 6° |
| 2026-04-25 10:04 | 19.60317 | -156.05770 | 2470 ft | 174 kts | 6° |
| 2026-04-25 10:04 | 19.61497 | -156.05666 | 2278 ft | 167 kts | 6° |
| 2026-04-25 10:04 | 19.62640 | -156.05565 | 2047 ft | 163 kts | 6° |
| 2026-04-25 10:05 | 19.63749 | -156.05466 | 1846 ft | 160 kts | 6° |
| 2026-04-25 10:05 | 19.64835 | -156.05369 | 1632 ft | 157 kts | 6° |
| 2026-04-25 10:05 | 19.65912 | -156.05274 | 1416 ft | 154 kts | 6° |
| 2026-04-25 10:05 | 19.66997 | -156.05178 | 1225 ft | 159 kts | 5° |
| 2026-04-25 10:06 | 19.68116 | -156.05078 | 1013 ft | 163 kts | 5° |
| 2026-04-25 10:06 | 19.69248 | -156.04977 | 811 ft | 162 kts | 4° |
| 2026-04-25 10:06 | 19.70375 | -156.04883 | 495 ft | 162 kts | 4° |
| 2026-04-25 10:06 | 19.71459 | -156.04790 | 291 ft | 152 kts | 2° |
| 2026-04-25 10:07 | 19.72497 | -156.04695 | 81 ft | 147 kts | 3° |
| 2026-04-25 10:07 | 19.73454 | -156.04609 | 46 ft | 124 kts | 5° |
| 2026-04-25 10:07 | 19.74013 | -156.04558 | 44 ft | 22 kts | 4° |
| 2026-04-25 10:07 | 19.74124 | -156.04526 | 44 ft | 15 kts | 49° |
| 2026-04-25 10:08 | 19.74137 | -156.04435 | 44 ft | 11 kts | 91° |
| 2026-04-25 10:08 | 19.74136 | -156.04352 | 43 ft | 11 kts | 91° |
| 2026-04-25 10:08 | 19.74097 | -156.04294 | 42 ft | 11 kts | 170° |
| 2026-04-25 10:08 | 19.74020 | -156.04297 | 42 ft | 11 kts | 180° |
| 2026-04-25 10:09 | 19.73945 | -156.04303 | 41 ft | 11 kts | 184° |